createdAt,value
2023-04-02T06:01:41.336Z,99378.25
2023-04-02T06:04:34.593Z,99381.19
2023-04-02T06:07:06.023Z,99384.03
2023-04-02T06:09:41.081Z,99389.06
2023-04-02T06:12:15.984Z,99387.06
2023-04-02T06:14:43.329Z,99398.25
2023-04-02T06:17:20.718Z,99409.34
2023-04-02T06:19:48.017Z,99403.94
2023-04-02T06:22:34.395Z,99414.69
2023-04-02T06:25:06.854Z,99410.78
2023-04-02T06:27:40.113Z,99415.75
2023-04-02T06:30:16.460Z,99421.53
2023-04-02T06:32:43.361Z,99428.91
2023-04-02T06:35:14.929Z,99429.63
2023-04-02T06:37:46.318Z,99437.91
2023-04-02T06:40:31.225Z,99444.84
2023-04-02T06:42:59.793Z,99445.72
2023-04-02T06:45:39.821Z,99451.94
2023-04-02T06:48:19.351Z,99445.59
2023-04-02T06:51:18.685Z,99460.50
2023-04-02T06:53:49.774Z,99461.56
2023-04-02T06:56:36.964Z,99466.13
2023-04-02T06:59:07.575Z,99467.69
2023-04-02T07:01:48.780Z,99481.00
2023-04-02T07:04:15.675Z,99484.16
2023-04-02T07:06:45.260Z,99491.88
2023-04-02T07:09:14.001Z,99494.31
2023-04-02T07:11:44.460Z,99496.72
2023-04-02T07:14:12.887Z,99503.94
2023-04-02T07:16:40.014Z,99505.50
2023-04-02T07:19:06.775Z,99506.47
2023-04-02T07:21:37.032Z,99513.44
2023-04-02T07:24:03.571Z,99515.97
2023-04-02T07:26:30.067Z,99523.44
2023-04-02T07:28:56.883Z,99528.00
2023-04-02T07:31:25.857Z,99535.25
2023-04-02T07:33:59.598Z,99528.47
2023-04-02T07:36:28.000Z,99534.38
2023-04-02T07:38:55.836Z,99542.19
2023-04-02T07:41:23.222Z,99548.22
2023-04-02T07:43:49.940Z,99547.28
2023-04-02T07:46:16.741Z,99548.50
2023-04-02T07:48:44.075Z,99557.56
2023-04-02T07:51:22.293Z,99557.22
2023-04-02T07:53:50.178Z,99560.75
2023-04-02T07:56:18.775Z,99571.75
2023-04-02T07:58:45.691Z,99572.22
2023-04-02T08:01:21.240Z,99574.22
2023-04-02T08:03:47.942Z,99581.94
2023-04-02T08:06:14.540Z,99579.78
2023-04-02T08:08:41.125Z,99586.91
2023-04-02T08:11:08.368Z,99595.50
2023-04-02T08:13:34.960Z,99591.03
2023-04-02T08:16:02.238Z,99596.72
2023-04-02T08:18:29.803Z,99603.97
2023-04-02T08:20:56.658Z,99602.25
2023-04-02T08:23:23.206Z,99600.34
2023-04-02T08:25:50.469Z,99614.63
2023-04-02T08:28:17.240Z,99618.03
2023-04-02T08:30:43.863Z,99622.47
2023-04-02T08:33:10.732Z,99632.19
2023-04-02T08:35:37.524Z,99628.84
2023-04-02T08:38:04.191Z,99634.97
2023-04-02T08:40:39.017Z,99636.97
2023-04-02T08:43:05.355Z,99651.28
2023-04-02T08:46:02.750Z,99645.34
2023-04-02T08:48:31.242Z,99651.00
2023-04-02T08:50:58.835Z,99659.25
2023-04-02T08:53:28.572Z,99658.50
2023-04-02T08:56:06.107Z,99669.31
2023-04-02T08:58:42.940Z,99673.06
2023-04-02T09:01:39.655Z,99674.44
2023-04-02T09:04:14.245Z,99692.84
2023-04-02T09:06:43.597Z,99698.06
2023-04-02T09:09:12.514Z,99700.97
2023-04-02T09:11:53.084Z,99710.34
2023-04-02T09:14:22.717Z,99713.16
2023-04-02T09:16:56.039Z,99723.81
2023-04-02T09:19:33.463Z,99729.09
2023-04-02T09:22:18.284Z,99729.44
2023-04-02T09:24:45.611Z,99734.84
2023-04-02T09:27:19.051Z,99733.38
2023-04-02T09:29:47.535Z,99735.91
2023-04-02T09:32:23.661Z,99747.22
2023-04-02T09:34:50.173Z,99749.09
2023-04-02T09:37:19.356Z,99758.50
2023-04-02T09:39:46.054Z,99765.94
2023-04-02T09:42:33.820Z,99767.88
2023-04-02T09:45:13.788Z,99783.03
2023-04-02T09:47:42.460Z,99777.84
2023-04-02T09:50:20.837Z,99778.78
2023-04-02T09:52:48.296Z,99774.56
2023-04-02T09:55:15.281Z,99791.94
2023-04-02T09:57:42.652Z,99786.38
2023-04-02T10:00:32.086Z,99792.31
2023-04-02T10:03:25.922Z,99799.94
2023-04-02T10:06:13.355Z,99809.38
2023-04-02T10:08:42.257Z,99805.69
2023-04-02T10:11:14.821Z,99815.06
2023-04-02T10:13:57.866Z,99817.41
2023-04-02T10:16:34.037Z,99820.91
2023-04-02T10:19:23.361Z,99834.00
2023-04-02T10:21:49.736Z,99831.97
2023-04-02T10:24:17.131Z,99838.19
2023-04-02T10:26:51.290Z,99839.63
2023-04-02T10:29:44.175Z,99843.72
2023-04-02T10:32:16.495Z,99844.81
2023-04-02T10:34:44.096Z,99856.97
2023-04-02T10:37:24.219Z,99850.34
2023-04-02T10:39:54.450Z,99847.06
2023-04-02T10:42:30.587Z,99855.44
2023-04-02T10:45:23.845Z,99862.03
2023-04-02T10:48:00.794Z,99869.28
2023-04-02T10:50:38.253Z,99867.59
2023-04-02T10:53:14.830Z,99879.03
2023-04-02T10:55:44.379Z,99879.69
2023-04-02T10:58:25.490Z,99890.19
2023-04-02T11:00:55.198Z,99883.41
2023-04-02T11:03:45.083Z,99890.78
2023-04-02T11:06:19.529Z,99894.56
2023-04-02T11:08:48.112Z,99899.94
2023-04-02T11:11:17.266Z,99898.31
2023-04-02T11:14:11.293Z,99906.56
2023-04-02T11:16:40.738Z,99912.00
2023-04-02T11:19:15.939Z,99910.78
2023-04-02T11:21:57.238Z,99920.41
2023-04-02T11:24:32.926Z,99924.00
2023-04-02T11:27:14.396Z,99920.97
2023-04-02T11:29:42.656Z,99935.84
2023-04-02T11:32:25.300Z,99934.91
2023-04-02T11:35:05.962Z,99934.16
2023-04-02T11:37:44.708Z,99938.59
2023-04-02T11:40:11.088Z,99951.22
2023-04-02T11:42:45.562Z,99962.94
2023-04-02T11:45:21.402Z,99961.41
2023-04-02T11:48:08.373Z,99963.28
2023-04-02T11:50:41.949Z,99970.28
2023-04-02T11:53:14.753Z,99972.44
2023-04-02T11:55:42.080Z,99980.75
2023-04-02T11:58:36.285Z,99985.44
2023-04-02T12:01:05.485Z,99988.56
2023-04-02T12:03:44.236Z,99997.25
2023-04-02T12:06:47.682Z,100000.19
2023-04-02T12:09:27.184Z,99998.47
2023-04-02T12:11:56.176Z,100001.50
2023-04-02T12:14:37.649Z,100009.13
2023-04-02T12:17:08.487Z,100009.13
2023-04-02T12:19:36.744Z,100015.16
2023-04-02T12:22:03.364Z,100015.66
2023-04-02T12:24:31.332Z,100019.88
2023-04-02T12:27:17.767Z,100030.34
2023-04-02T12:29:44.356Z,100028.44
2023-04-02T12:32:24.884Z,100038.44
2023-04-02T12:34:52.777Z,100042.91
2023-04-02T12:37:21.883Z,100051.25
2023-04-02T12:39:56.587Z,100052.28
2023-04-02T12:42:31.881Z,100050.00
2023-04-02T12:44:58.394Z,100065.69
2023-04-02T12:47:25.186Z,100059.22
2023-04-02T12:49:52.631Z,100071.16
2023-04-02T12:52:21.581Z,100068.06
2023-04-02T12:54:50.356Z,100074.03
2023-04-02T12:57:26.132Z,100075.22
2023-04-02T13:00:01.375Z,100079.81
2023-04-02T13:02:30.129Z,100079.31
2023-04-02T13:05:01.176Z,100085.75
2023-04-02T13:07:30.730Z,100091.47
2023-04-02T13:09:59.374Z,100084.75
2023-04-02T13:12:34.201Z,100081.41
2023-04-02T13:15:03.105Z,100095.22
2023-04-02T13:17:37.240Z,100088.31
2023-04-02T13:20:27.338Z,100089.41
2023-04-02T13:22:53.865Z,100098.00
2023-04-02T13:25:27.821Z,100088.50
2023-04-02T13:27:54.563Z,100093.50
2023-04-02T13:30:24.475Z,100109.06
2023-04-02T13:32:51.016Z,100108.75
2023-04-02T13:35:17.656Z,100107.03
2023-04-02T13:37:44.394Z,100116.78
2023-04-02T13:40:14.925Z,100116.97
2023-04-02T13:42:42.508Z,100120.34
2023-04-02T13:45:36.609Z,100124.59
2023-04-02T13:48:04.080Z,100133.94
2023-04-02T13:50:32.570Z,100126.44
2023-04-02T13:53:05.972Z,100131.91
2023-04-02T13:55:36.661Z,100141.97
2023-04-02T13:58:04.004Z,100139.53
2023-04-02T14:00:31.301Z,100141.72
2023-04-02T14:03:07.333Z,100154.63
2023-04-02T14:05:59.151Z,100153.63
2023-04-02T14:08:56.920Z,100156.97
2023-04-02T14:11:48.121Z,100159.94
2023-04-02T14:14:45.465Z,100157.84
2023-04-02T14:17:49.725Z,100169.59
2023-04-02T14:20:25.166Z,100173.09
2023-04-02T14:23:00.629Z,100179.91
2023-04-02T14:25:38.985Z,100186.19
2023-04-02T14:28:37.752Z,100189.81
2023-04-02T14:31:18.096Z,100195.00
2023-04-02T14:34:13.212Z,100192.50
2023-04-02T14:36:51.797Z,100197.78
2023-04-02T14:39:18.375Z,100198.91
2023-04-02T14:41:50.842Z,100198.00
2023-04-02T14:44:20.038Z,100212.25
2023-04-02T14:46:47.063Z,100212.13
2023-04-02T14:49:23.784Z,100223.13
2023-04-02T14:51:56.184Z,100213.22
2023-04-02T14:54:42.574Z,100226.38
2023-04-02T14:57:22.995Z,100224.59
2023-04-02T15:00:04.897Z,100241.31
2023-04-02T15:02:51.663Z,100235.50
2023-04-02T15:05:28.435Z,100245.56
2023-04-02T15:08:03.280Z,100248.56
2023-04-02T15:10:32.014Z,100250.94
2023-04-02T15:13:00.471Z,100253.88
2023-04-02T15:15:43.409Z,100251.78
2023-04-02T15:18:13.045Z,100253.13
2023-04-02T15:21:09.040Z,100258.16
2023-04-02T15:24:12.989Z,100260.84
2023-04-02T15:27:21.895Z,100263.94
2023-04-02T15:29:58.509Z,100268.91
2023-04-02T15:32:32.311Z,100267.56
2023-04-02T15:35:29.344Z,100275.38
2023-04-02T15:38:20.122Z,100279.72
2023-04-02T15:40:49.339Z,100281.66
2023-04-02T15:43:34.261Z,100284.34
2023-04-02T15:46:27.106Z,100289.41
2023-04-02T15:49:15.341Z,100300.22
2023-04-02T15:51:48.462Z,100302.34
2023-04-02T15:54:16.357Z,100287.84
2023-04-02T15:57:18.610Z,100299.31
2023-04-02T15:59:57.121Z,100317.34
2023-04-02T16:03:02.469Z,100320.19
2023-04-02T16:06:16.762Z,100329.50
2023-04-02T16:09:07.986Z,100329.16
2023-04-02T16:11:34.809Z,100331.72
2023-04-02T16:14:13.277Z,100322.34
2023-04-02T16:16:40.246Z,100334.69
2023-04-02T16:19:16.789Z,100335.41
2023-04-02T16:21:49.169Z,100340.31
2023-04-02T16:24:15.832Z,100343.78
2023-04-02T16:27:05.605Z,100346.69
2023-04-02T16:29:55.180Z,100355.53
2023-04-02T16:32:49.853Z,100362.63
2023-04-02T16:35:42.781Z,100359.09
2023-04-02T16:38:24.945Z,100363.47
2023-04-02T16:41:07.023Z,100375.84
2023-04-02T16:43:34.929Z,100382.53
2023-04-02T16:46:38.971Z,100380.88
2023-04-02T16:49:31.397Z,100391.25
2023-04-02T16:52:03.992Z,100398.50
2023-04-02T16:55:00.940Z,100409.34
2023-04-02T16:57:31.361Z,100417.75
2023-04-02T17:00:42.942Z,100425.84
2023-04-02T17:03:24.656Z,100430.81
2023-04-02T17:05:55.777Z,100436.16
2023-04-02T17:08:26.917Z,100435.53
2023-04-02T17:11:06.317Z,100440.94
2023-04-02T17:13:47.358Z,100448.69
2023-04-02T17:16:20.081Z,100451.25
2023-04-02T17:18:48.794Z,100463.34
2023-04-02T17:21:19.289Z,100464.34
2023-04-02T17:24:02.650Z,100468.31
2023-04-02T17:26:30.835Z,100486.34
2023-04-02T17:28:59.033Z,100485.97
2023-04-02T17:31:27.597Z,100483.78
2023-04-02T17:33:54.037Z,100488.09
2023-04-02T17:36:35.786Z,100488.84
2023-04-02T17:39:35.651Z,100490.81
2023-04-02T17:42:10.536Z,100495.88
2023-04-02T17:44:56.660Z,100505.13
2023-04-02T17:47:26.973Z,100509.25
2023-04-02T17:50:24.541Z,100514.41
2023-04-02T17:53:04.625Z,100521.72
2023-04-02T17:55:50.402Z,100531.94
2023-04-02T17:58:38.333Z,100531.25
2023-04-02T18:01:14.340Z,100531.31
2023-04-02T18:03:53.142Z,100535.84
2023-04-02T18:06:30.842Z,100538.81
2023-04-02T18:09:40.972Z,100548.31
2023-04-02T18:12:38.527Z,100558.78
2023-04-02T18:15:15.632Z,100563.34
2023-04-02T18:17:48.486Z,100560.94
2023-04-02T18:20:35.382Z,100559.13
2023-04-02T18:23:38.541Z,100571.78
2023-04-02T18:26:27.858Z,100577.44
2023-04-02T18:29:30.318Z,100579.47
2023-04-02T18:32:15.228Z,100576.97
2023-04-02T18:35:20.623Z,100594.59
2023-04-02T18:37:57.994Z,100587.91
2023-04-02T18:40:31.662Z,100603.84
2023-04-02T18:43:01.047Z,100608.16
2023-04-02T18:45:40.758Z,100607.25
2023-04-02T18:48:12.904Z,100609.88
2023-04-02T18:50:45.857Z,100616.78
2023-04-02T18:53:18.438Z,100626.38
2023-04-02T18:55:49.556Z,100629.16
2023-04-02T18:58:23.106Z,100632.09
2023-04-02T19:00:50.098Z,100645.41
2023-04-02T19:03:17.855Z,100654.13
2023-04-02T19:05:51.385Z,100660.25
2023-04-02T19:08:22.174Z,100668.13
2023-04-02T19:10:53.902Z,100669.78
2023-04-02T19:13:21.295Z,100674.28
2023-04-02T19:16:13.517Z,100678.13
2023-04-02T19:19:00.012Z,100681.91
2023-04-02T19:21:54.378Z,100686.25
2023-04-02T19:24:28.031Z,100700.94
2023-04-02T19:26:59.658Z,100694.81
2023-04-02T19:29:59.321Z,100703.34
2023-04-02T19:32:34.144Z,100715.47
2023-04-02T19:35:28.024Z,100713.44
2023-04-02T19:38:15.881Z,100715.09
2023-04-02T19:40:51.340Z,100713.31
2023-04-02T19:43:18.034Z,100719.41
2023-04-02T19:45:46.824Z,100721.97
2023-04-02T19:48:26.508Z,100720.47
2023-04-02T19:50:53.644Z,100718.84
2023-04-02T19:53:20.200Z,100729.31
2023-04-02T19:55:46.753Z,100736.25
2023-04-02T19:58:26.285Z,100726.50
2023-04-02T20:00:52.818Z,100730.78
2023-04-02T20:03:19.341Z,100736.03
2023-04-02T20:05:46.087Z,100745.69
2023-04-02T20:08:12.498Z,100749.09
2023-04-02T20:10:39.119Z,100751.66
2023-04-02T20:13:05.872Z,100755.88
2023-04-02T20:15:32.379Z,100763.75
2023-04-02T20:17:58.826Z,100754.22
2023-04-02T20:20:25.303Z,100765.59
2023-04-02T20:22:51.754Z,100768.22
2023-04-02T20:25:19.286Z,100764.78
2023-04-02T20:27:46.002Z,100764.78
2023-04-02T20:30:12.603Z,100765.69
2023-04-02T20:32:39.166Z,100777.06
2023-04-02T20:35:06.046Z,100774.63
2023-04-02T20:37:32.779Z,100781.53
2023-04-02T20:39:59.213Z,100779.75
2023-04-02T20:42:25.953Z,100783.41
2023-04-02T20:44:52.522Z,100793.00
2023-04-02T20:47:19.331Z,100803.44
2023-04-02T20:49:45.813Z,100797.28
2023-04-02T20:52:12.321Z,100812.13
2023-04-02T20:54:38.752Z,100808.53
2023-04-02T20:57:07.721Z,100804.97
2023-04-02T20:59:34.249Z,100804.03
2023-04-02T21:02:00.749Z,100809.28
2023-04-02T21:04:27.860Z,100816.41
2023-04-02T21:06:56.941Z,100812.06
2023-04-02T21:09:23.597Z,100824.31
2023-04-02T21:11:50.231Z,100827.81
2023-04-02T21:14:18.073Z,100829.56
2023-04-02T21:16:44.857Z,100832.16
2023-04-02T21:19:11.321Z,100837.25
2023-04-02T21:21:38.924Z,100834.63
2023-04-02T21:24:07.227Z,100839.94
2023-04-02T21:26:36.829Z,100839.88
2023-04-02T21:29:03.496Z,100845.03
2023-04-02T21:31:34.223Z,100831.94
2023-04-02T21:34:00.724Z,100837.16
2023-04-02T21:36:35.310Z,100839.94
2023-04-02T21:39:15.901Z,100835.13
2023-04-02T21:41:43.904Z,100832.91
2023-04-02T21:44:13.893Z,100844.69
2023-04-02T21:46:44.895Z,100847.41
2023-04-02T21:49:13.856Z,100835.94
2023-04-02T21:51:42.063Z,100844.81
2023-04-02T21:54:08.885Z,100836.00
2023-04-02T21:56:37.495Z,100846.44
2023-04-02T21:59:05.737Z,100834.22
2023-04-02T22:01:38.153Z,100847.34
2023-04-02T22:04:06.139Z,100846.44
2023-04-02T22:06:36.782Z,100851.63
2023-04-02T22:09:06.771Z,100847.34
2023-04-02T22:11:36.375Z,100850.84
2023-04-02T22:14:03.924Z,100846.50
2023-04-02T22:16:31.934Z,100853.50
2023-04-02T22:19:00.811Z,100853.53
2023-04-02T22:21:28.448Z,100849.44
2023-04-02T22:23:55.284Z,100852.19
2023-04-02T22:26:25.602Z,100853.25
2023-04-02T22:28:52.629Z,100848.25
2023-04-02T22:31:24.538Z,100850.22
2023-04-02T22:33:51.776Z,100849.63
2023-04-02T22:36:18.837Z,100855.06
2023-04-02T22:38:45.850Z,100855.25
2023-04-02T22:41:14.728Z,100860.63
2023-04-02T22:43:43.752Z,100864.13
2023-04-02T22:46:12.548Z,100865.94
2023-04-02T22:48:42.190Z,100859.16
2023-04-02T22:51:10.339Z,100863.66
2023-04-02T22:53:37.341Z,100857.69
2023-04-02T22:56:11.273Z,100856.06
2023-04-02T22:58:37.936Z,100854.56
2023-04-02T23:01:05.738Z,100853.09
2023-04-02T23:03:33.626Z,100855.94
2023-04-02T23:06:07.186Z,100865.81
2023-04-02T23:08:34.821Z,100860.81
2023-04-02T23:11:09.450Z,100874.03
2023-04-02T23:13:36.716Z,100869.81
2023-04-02T23:16:05.525Z,100869.09
2023-04-02T23:18:33.537Z,100859.63
2023-04-02T23:21:00.048Z,100863.22
2023-04-02T23:23:26.937Z,100862.44
2023-04-02T23:26:11.670Z,100865.19
2023-04-02T23:28:39.864Z,100866.22
2023-04-02T23:31:08.905Z,100870.56
2023-04-02T23:33:35.588Z,100871.47
2023-04-02T23:36:18.643Z,100875.91
2023-04-02T23:38:45.146Z,100872.44
2023-04-02T23:41:17.800Z,100875.09
2023-04-02T23:43:44.425Z,100873.50
2023-04-02T23:46:11.533Z,100870.06
2023-04-02T23:48:38.021Z,100864.09
2023-04-02T23:51:10.688Z,100874.59
2023-04-02T23:53:37.110Z,100871.22
2023-04-02T23:56:03.679Z,100869.56
2023-04-02T23:58:30.237Z,100871.31
